sensor_id;sensor_type;location;lat;lon;timestamp;P1;durP1;ratioP1;P2;durP2;ratioP2
21999;SDS011;11164;48.818;2.322;2023-06-22T00:01:10;5.15;;;3.00;;
21999;SDS011;11164;48.818;2.322;2023-06-22T00:03:36;6.55;;;3.10;;
21999;SDS011;11164;48.818;2.322;2023-06-22T00:06:01;6.38;;;3.17;;
21999;SDS011;11164;48.818;2.322;2023-06-22T00:08:26;5.25;;;2.90;;
21999;SDS011;11164;48.818;2.322;2023-06-22T00:10:52;5.82;;;3.00;;
21999;SDS011;11164;48.818;2.322;2023-06-22T00:13:17;6.82;;;3.03;;
21999;SDS011;11164;48.818;2.322;2023-06-22T00:15:43;5.20;;;3.22;;
21999;SDS011;11164;48.818;2.322;2023-06-22T00:18:09;6.20;;;3.25;;
21999;SDS011;11164;48.818;2.322;2023-06-22T00:20:35;5.28;;;3.05;;
21999;SDS011;11164;48.818;2.322;2023-06-22T00:23:05;7.35;;;3.00;;
21999;SDS011;11164;48.818;2.322;2023-06-22T00:25:39;5.50;;;3.08;;
21999;SDS011;11164;48.818;2.322;2023-06-22T00:28:05;5.70;;;2.95;;
21999;SDS011;11164;48.818;2.322;2023-06-22T00:30:31;6.07;;;3.13;;
21999;SDS011;11164;48.818;2.322;2023-06-22T00:32:57;6.47;;;2.88;;
21999;SDS011;11164;48.818;2.322;2023-06-22T00:35:24;6.30;;;3.15;;
21999;SDS011;11164;48.818;2.322;2023-06-22T00:37:53;5.25;;;3.03;;
21999;SDS011;11164;48.818;2.322;2023-06-22T00:40:25;4.55;;;2.60;;
21999;SDS011;11164;48.818;2.322;2023-06-22T00:42:51;5.70;;;2.80;;
21999;SDS011;11164;48.818;2.322;2023-06-22T00:45:16;4.70;;;2.95;;
21999;SDS011;11164;48.818;2.322;2023-06-22T00:47:41;6.32;;;3.00;;
21999;SDS011;11164;48.818;2.322;2023-06-22T00:50:08;5.00;;;2.67;;
21999;SDS011;11164;48.818;2.322;2023-06-22T00:52:43;4.78;;;3.22;;
21999;SDS011;11164;48.818;2.322;2023-06-22T00:55:11;7.63;;;3.10;;
21999;SDS011;11164;48.818;2.322;2023-06-22T00:57:36;6.78;;;3.35;;
21999;SDS011;11164;48.818;2.322;2023-06-22T01:00:02;6.55;;;3.20;;
21999;SDS011;11164;48.818;2.322;2023-06-22T01:02:31;8.57;;;3.20;;
21999;SDS011;11164;48.818;2.322;2023-06-22T01:04:57;4.97;;;3.17;;
21999;SDS011;11164;48.818;2.322;2023-06-22T01:10:17;4.05;;;2.50;;
21999;SDS011;11164;48.818;2.322;2023-06-22T01:12:45;7.00;;;3.28;;
21999;SDS011;11164;48.818;2.322;2023-06-22T01:15:28;5.80;;;2.78;;
21999;SDS011;11164;48.818;2.322;2023-06-22T01:18:18;5.15;;;2.90;;
21999;SDS011;11164;48.818;2.322;2023-06-22T01:20:45;6.72;;;3.20;;
21999;SDS011;11164;48.818;2.322;2023-06-22T01:29:29;5.22;;;3.00;;
21999;SDS011;11164;48.818;2.322;2023-06-22T01:31:56;6.57;;;3.40;;
21999;SDS011;11164;48.818;2.322;2023-06-22T01:34:22;8.40;;;3.28;;
21999;SDS011;11164;48.818;2.322;2023-06-22T01:36:49;5.10;;;3.28;;
21999;SDS011;11164;48.818;2.322;2023-06-22T01:39:15;5.95;;;3.17;;
21999;SDS011;11164;48.818;2.322;2023-06-22T01:41:42;6.40;;;2.88;;
21999;SDS011;11164;48.818;2.322;2023-06-22T01:44:08;6.72;;;3.38;;
21999;SDS011;11164;48.818;2.322;2023-06-22T01:46:34;7.05;;;3.10;;
21999;SDS011;11164;48.818;2.322;2023-06-22T01:49:02;6.25;;;3.05;;
21999;SDS011;11164;48.818;2.322;2023-06-22T01:51:28;7.45;;;3.35;;
21999;SDS011;11164;48.818;2.322;2023-06-22T01:53:54;9.25;;;3.30;;
21999;SDS011;11164;48.818;2.322;2023-06-22T01:56:19;5.72;;;3.15;;
21999;SDS011;11164;48.818;2.322;2023-06-22T01:58:52;5.47;;;3.10;;
21999;SDS011;11164;48.818;2.322;2023-06-22T02:01:31;6.43;;;3.47;;
21999;SDS011;11164;48.818;2.322;2023-06-22T02:04:06;6.10;;;3.10;;
21999;SDS011;11164;48.818;2.322;2023-06-22T02:06:37;5.20;;;2.88;;
21999;SDS011;11164;48.818;2.322;2023-06-22T02:09:11;7.60;;;3.40;;
21999;SDS011;11164;48.818;2.322;2023-06-22T02:11:40;6.05;;;3.30;;
21999;SDS011;11164;48.818;2.322;2023-06-22T02:14:07;6.28;;;3.30;;
21999;SDS011;11164;48.818;2.322;2023-06-22T02:16:33;5.32;;;3.38;;
21999;SDS011;11164;48.818;2.322;2023-06-22T02:18:59;4.95;;;3.22;;
21999;SDS011;11164;48.818;2.322;2023-06-22T02:21:28;6.53;;;3.75;;
21999;SDS011;11164;48.818;2.322;2023-06-22T02:23:53;6.55;;;3.50;;
21999;SDS011;11164;48.818;2.322;2023-06-22T02:26:19;6.15;;;3.65;;
21999;SDS011;11164;48.818;2.322;2023-06-22T02:28:44;5.40;;;3.13;;
21999;SDS011;11164;48.818;2.322;2023-06-22T02:31:10;5.75;;;3.10;;
21999;SDS011;11164;48.818;2.322;2023-06-22T02:33:36;6.13;;;3.00;;
21999;SDS011;11164;48.818;2.322;2023-06-22T02:36:01;7.63;;;3.33;;
21999;SDS011;11164;48.818;2.322;2023-06-22T02:38:30;7.00;;;3.10;;
21999;SDS011;11164;48.818;2.322;2023-06-22T02:40:59;6.25;;;3.17;;
21999;SDS011;11164;48.818;2.322;2023-06-22T02:43:24;6.50;;;3.08;;
21999;SDS011;11164;48.818;2.322;2023-06-22T02:45:50;6.30;;;3.33;;
21999;SDS011;11164;48.818;2.322;2023-06-22T02:48:16;5.75;;;3.13;;
21999;SDS011;11164;48.818;2.322;2023-06-22T02:50:41;7.82;;;3.25;;
21999;SDS011;11164;48.818;2.322;2023-06-22T02:53:07;6.78;;;3.75;;
21999;SDS011;11164;48.818;2.322;2023-06-22T02:55:32;6.70;;;3.03;;
21999;SDS011;11164;48.818;2.322;2023-06-22T02:57:57;6.85;;;3.28;;
21999;SDS011;11164;48.818;2.322;2023-06-22T03:00:24;6.57;;;3.00;;
21999;SDS011;11164;48.818;2.322;2023-06-22T03:02:55;6.00;;;3.53;;
21999;SDS011;11164;48.818;2.322;2023-06-22T03:05:22;5.55;;;3.33;;
21999;SDS011;11164;48.818;2.322;2023-06-22T03:07:47;7.30;;;2.97;;
21999;SDS011;11164;48.818;2.322;2023-06-22T03:10:13;5.78;;;3.20;;
21999;SDS011;11164;48.818;2.322;2023-06-22T03:12:41;6.28;;;3.42;;
21999;SDS011;11164;48.818;2.322;2023-06-22T03:15:08;5.63;;;3.35;;
21999;SDS011;11164;48.818;2.322;2023-06-22T03:17:37;6.28;;;3.55;;
21999;SDS011;11164;48.818;2.322;2023-06-22T03:20:05;5.57;;;3.30;;
21999;SDS011;11164;48.818;2.322;2023-06-22T03:22:39;7.28;;;3.50;;
21999;SDS011;11164;48.818;2.322;2023-06-22T03:25:05;7.97;;;3.78;;
21999;SDS011;11164;48.818;2.322;2023-06-22T03:27:44;6.22;;;3.70;;
21999;SDS011;11164;48.818;2.322;2023-06-22T03:30:20;8.00;;;3.70;;
21999;SDS011;11164;48.818;2.322;2023-06-22T03:32:46;6.80;;;3.47;;
21999;SDS011;11164;48.818;2.322;2023-06-22T03:35:11;5.55;;;3.42;;
21999;SDS011;11164;48.818;2.322;2023-06-22T03:37:39;6.97;;;3.30;;
21999;SDS011;11164;48.818;2.322;2023-06-22T03:40:04;6.22;;;3.30;;
21999;SDS011;11164;48.818;2.322;2023-06-22T03:42:31;7.28;;;3.35;;
21999;SDS011;11164;48.818;2.322;2023-06-22T03:44:56;6.47;;;3.03;;
21999;SDS011;11164;48.818;2.322;2023-06-22T03:47:22;5.63;;;3.25;;
21999;SDS011;11164;48.818;2.322;2023-06-22T03:49:47;5.80;;;3.40;;
21999;SDS011;11164;48.818;2.322;2023-06-22T03:52:12;6.63;;;3.42;;
21999;SDS011;11164;48.818;2.322;2023-06-22T03:54:38;7.75;;;3.58;;
21999;SDS011;11164;48.818;2.322;2023-06-22T03:57:03;6.82;;;3.67;;
21999;SDS011;11164;48.818;2.322;2023-06-22T03:59:29;7.22;;;3.58;;
21999;SDS011;11164;48.818;2.322;2023-06-22T04:01:54;6.65;;;3.22;;
21999;SDS011;11164;48.818;2.322;2023-06-22T04:04:21;6.63;;;3.67;;
21999;SDS011;11164;48.818;2.322;2023-06-22T04:06:46;6.82;;;3.42;;
21999;SDS011;11164;48.818;2.322;2023-06-22T04:09:12;6.63;;;3.40;;
21999;SDS011;11164;48.818;2.322;2023-06-22T04:11:37;9.48;;;4.00;;
21999;SDS011;11164;48.818;2.322;2023-06-22T04:14:02;6.03;;;3.60;;
21999;SDS011;11164;48.818;2.322;2023-06-22T04:16:28;7.82;;;3.20;;
21999;SDS011;11164;48.818;2.322;2023-06-22T04:18:53;5.40;;;3.10;;
21999;SDS011;11164;48.818;2.322;2023-06-22T04:21:19;7.57;;;3.80;;
21999;SDS011;11164;48.818;2.322;2023-06-22T04:23:45;6.75;;;3.45;;
21999;SDS011;11164;48.818;2.322;2023-06-22T04:26:11;6.68;;;3.60;;
21999;SDS011;11164;48.818;2.322;2023-06-22T04:28:37;9.23;;;4.13;;
21999;SDS011;11164;48.818;2.322;2023-06-22T04:31:02;8.02;;;3.67;;
21999;SDS011;11164;48.818;2.322;2023-06-22T04:33:28;7.18;;;3.35;;
21999;SDS011;11164;48.818;2.322;2023-06-22T04:35:56;5.68;;;3.28;;
21999;SDS011;11164;48.818;2.322;2023-06-22T04:38:23;7.25;;;4.03;;
21999;SDS011;11164;48.818;2.322;2023-06-22T04:40:49;8.38;;;3.65;;
21999;SDS011;11164;48.818;2.322;2023-06-22T04:43:15;7.30;;;4.20;;
21999;SDS011;11164;48.818;2.322;2023-06-22T04:45:40;8.88;;;4.00;;
21999;SDS011;11164;48.818;2.322;2023-06-22T04:48:06;9.75;;;4.70;;
21999;SDS011;11164;48.818;2.322;2023-06-22T04:50:31;9.82;;;4.60;;
21999;SDS011;11164;48.818;2.322;2023-06-22T04:52:57;10.48;;;4.88;;
21999;SDS011;11164;48.818;2.322;2023-06-22T04:55:23;9.52;;;4.60;;
21999;SDS011;11164;48.818;2.322;2023-06-22T04:57:50;7.43;;;4.10;;
21999;SDS011;11164;48.818;2.322;2023-06-22T05:00:17;7.07;;;4.50;;
21999;SDS011;11164;48.818;2.322;2023-06-22T05:02:44;10.90;;;4.95;;
21999;SDS011;11164;48.818;2.322;2023-06-22T05:05:11;8.38;;;5.15;;
21999;SDS011;11164;48.818;2.322;2023-06-22T05:07:47;9.38;;;5.15;;
21999;SDS011;11164;48.818;2.322;2023-06-22T05:10:15;10.32;;;4.93;;
21999;SDS011;11164;48.818;2.322;2023-06-22T05:12:41;10.32;;;5.10;;
21999;SDS011;11164;48.818;2.322;2023-06-22T05:15:07;8.43;;;5.38;;
21999;SDS011;11164;48.818;2.322;2023-06-22T05:17:33;11.52;;;5.30;;
21999;SDS011;11164;48.818;2.322;2023-06-22T05:19:59;9.80;;;5.43;;
21999;SDS011;11164;48.818;2.322;2023-06-22T05:22:24;11.07;;;5.40;;
21999;SDS011;11164;48.818;2.322;2023-06-22T05:24:49;12.60;;;5.60;;
21999;SDS011;11164;48.818;2.322;2023-06-22T05:27:15;11.00;;;5.57;;
21999;SDS011;11164;48.818;2.322;2023-06-22T05:29:40;12.75;;;6.35;;
21999;SDS011;11164;48.818;2.322;2023-06-22T05:32:06;10.35;;;5.97;;
21999;SDS011;11164;48.818;2.322;2023-06-22T05:34:32;10.32;;;6.32;;
21999;SDS011;11164;48.818;2.322;2023-06-22T05:36:57;10.55;;;6.03;;
21999;SDS011;11164;48.818;2.322;2023-06-22T05:39:26;12.60;;;6.63;;
21999;SDS011;11164;48.818;2.322;2023-06-22T05:41:51;11.57;;;6.57;;
21999;SDS011;11164;48.818;2.322;2023-06-22T05:44:17;12.10;;;6.70;;
21999;SDS011;11164;48.818;2.322;2023-06-22T05:46:43;10.27;;;6.65;;
21999;SDS011;11164;48.818;2.322;2023-06-22T05:49:13;11.27;;;7.50;;
21999;SDS011;11164;48.818;2.322;2023-06-22T05:51:39;11.82;;;7.45;;
21999;SDS011;11164;48.818;2.322;2023-06-22T05:54:05;13.95;;;7.15;;
21999;SDS011;11164;48.818;2.322;2023-06-22T05:56:30;14.18;;;8.27;;
21999;SDS011;11164;48.818;2.322;2023-06-22T05:58:55;17.05;;;7.88;;
21999;SDS011;11164;48.818;2.322;2023-06-22T06:01:21;17.05;;;8.60;;
21999;SDS011;11164;48.818;2.322;2023-06-22T06:03:46;17.15;;;9.75;;
21999;SDS011;11164;48.818;2.322;2023-06-22T06:06:12;18.48;;;9.82;;
21999;SDS011;11164;48.818;2.322;2023-06-22T06:08:38;15.45;;;9.25;;
21999;SDS011;11164;48.818;2.322;2023-06-22T06:11:03;15.32;;;9.40;;
21999;SDS011;11164;48.818;2.322;2023-06-22T06:13:29;15.60;;;9.52;;
21999;SDS011;11164;48.818;2.322;2023-06-22T06:15:54;18.10;;;11.65;;
21999;SDS011;11164;48.818;2.322;2023-06-22T06:18:20;18.23;;;11.50;;
21999;SDS011;11164;48.818;2.322;2023-06-22T06:20:46;20.70;;;11.07;;
21999;SDS011;11164;48.818;2.322;2023-06-22T06:23:11;18.35;;;10.07;;
21999;SDS011;11164;48.818;2.322;2023-06-22T06:25:37;21.23;;;12.02;;
21999;SDS011;11164;48.818;2.322;2023-06-22T06:28:02;21.10;;;11.50;;
21999;SDS011;11164;48.818;2.322;2023-06-22T06:30:28;20.95;;;13.38;;
21999;SDS011;11164;48.818;2.322;2023-06-22T06:32:53;21.38;;;12.20;;
21999;SDS011;11164;48.818;2.322;2023-06-22T06:35:19;21.83;;;12.77;;
21999;SDS011;11164;48.818;2.322;2023-06-22T06:37:47;18.80;;;12.65;;
21999;SDS011;11164;48.818;2.322;2023-06-22T06:40:14;21.50;;;12.68;;
21999;SDS011;11164;48.818;2.322;2023-06-22T06:42:45;23.52;;;12.35;;
21999;SDS011;11164;48.818;2.322;2023-06-22T06:45:16;22.05;;;13.73;;
21999;SDS011;11164;48.818;2.322;2023-06-22T06:47:50;24.73;;;14.25;;
21999;SDS011;11164;48.818;2.322;2023-06-22T06:50:16;26.13;;;14.15;;
21999;SDS011;11164;48.818;2.322;2023-06-22T06:52:42;25.55;;;14.25;;
21999;SDS011;11164;48.818;2.322;2023-06-22T06:55:08;27.20;;;14.55;;
21999;SDS011;11164;48.818;2.322;2023-06-22T06:57:37;28.52;;;17.88;;
21999;SDS011;11164;48.818;2.322;2023-06-22T07:00:06;30.35;;;15.45;;
21999;SDS011;11164;48.818;2.322;2023-06-22T07:02:37;28.73;;;16.25;;
21999;SDS011;11164;48.818;2.322;2023-06-22T07:05:10;26.83;;;15.32;;
21999;SDS011;11164;48.818;2.322;2023-06-22T07:07:36;28.75;;;16.23;;
21999;SDS011;11164;48.818;2.322;2023-06-22T07:10:02;24.55;;;14.93;;
21999;SDS011;11164;48.818;2.322;2023-06-22T07:12:28;27.30;;;16.38;;
21999;SDS011;11164;48.818;2.322;2023-06-22T07:14:53;32.50;;;16.88;;
21999;SDS011;11164;48.818;2.322;2023-06-22T07:17:26;29.77;;;16.25;;
21999;SDS011;11164;48.818;2.322;2023-06-22T07:19:51;27.60;;;17.35;;
21999;SDS011;11164;48.818;2.322;2023-06-22T07:22:17;30.63;;;17.42;;
21999;SDS011;11164;48.818;2.322;2023-06-22T07:24:42;31.40;;;17.90;;
21999;SDS011;11164;48.818;2.322;2023-06-22T07:27:07;31.77;;;20.40;;
21999;SDS011;11164;48.818;2.322;2023-06-22T07:29:36;34.20;;;19.05;;
21999;SDS011;11164;48.818;2.322;2023-06-22T07:32:01;30.10;;;18.77;;
21999;SDS011;11164;48.818;2.322;2023-06-22T07:34:29;38.67;;;20.08;;
21999;SDS011;11164;48.818;2.322;2023-06-22T07:36:55;32.55;;;18.80;;
21999;SDS011;11164;48.818;2.322;2023-06-22T07:39:20;34.20;;;20.42;;
21999;SDS011;11164;48.818;2.322;2023-06-22T07:41:50;35.75;;;21.63;;
21999;SDS011;11164;48.818;2.322;2023-06-22T07:44:16;32.33;;;19.15;;
21999;SDS011;11164;48.818;2.322;2023-06-22T07:46:42;34.45;;;20.85;;
21999;SDS011;11164;48.818;2.322;2023-06-22T07:49:07;36.05;;;20.92;;
21999;SDS011;11164;48.818;2.322;2023-06-22T07:51:33;34.08;;;20.88;;
21999;SDS011;11164;48.818;2.322;2023-06-22T07:53:59;37.15;;;22.95;;
21999;SDS011;11164;48.818;2.322;2023-06-22T07:56:24;40.10;;;23.40;;
21999;SDS011;11164;48.818;2.322;2023-06-22T07:58:49;34.95;;;23.63;;
21999;SDS011;11164;48.818;2.322;2023-06-22T08:01:15;36.38;;;22.27;;
21999;SDS011;11164;48.818;2.322;2023-06-22T08:03:40;37.33;;;23.98;;
21999;SDS011;11164;48.818;2.322;2023-06-22T08:06:06;37.35;;;23.60;;
21999;SDS011;11164;48.818;2.322;2023-06-22T08:08:34;41.00;;;23.25;;
21999;SDS011;11164;48.818;2.322;2023-06-22T08:11:00;40.38;;;22.63;;
21999;SDS011;11164;48.818;2.322;2023-06-22T08:13:25;40.22;;;22.70;;
21999;SDS011;11164;48.818;2.322;2023-06-22T08:15:51;43.83;;;25.52;;
21999;SDS011;11164;48.818;2.322;2023-06-22T08:18:16;41.75;;;23.70;;
21999;SDS011;11164;48.818;2.322;2023-06-22T08:20:42;40.67;;;22.85;;
21999;SDS011;11164;48.818;2.322;2023-06-22T08:23:07;41.90;;;25.35;;
21999;SDS011;11164;48.818;2.322;2023-06-22T08:25:33;39.03;;;24.02;;
21999;SDS011;11164;48.818;2.322;2023-06-22T08:27:59;40.72;;;23.42;;
21999;SDS011;11164;48.818;2.322;2023-06-22T08:30:26;41.88;;;24.15;;
21999;SDS011;11164;48.818;2.322;2023-06-22T08:32:52;42.33;;;24.27;;
21999;SDS011;11164;48.818;2.322;2023-06-22T08:35:18;39.10;;;22.20;;
21999;SDS011;11164;48.818;2.322;2023-06-22T08:37:44;42.70;;;25.30;;
21999;SDS011;11164;48.818;2.322;2023-06-22T08:40:15;43.20;;;24.35;;
21999;SDS011;11164;48.818;2.322;2023-06-22T08:42:40;44.55;;;25.52;;
21999;SDS011;11164;48.818;2.322;2023-06-22T08:45:06;40.65;;;25.08;;
21999;SDS011;11164;48.818;2.322;2023-06-22T08:47:32;39.83;;;24.45;;
21999;SDS011;11164;48.818;2.322;2023-06-22T08:49:57;42.47;;;25.70;;
21999;SDS011;11164;48.818;2.322;2023-06-22T08:52:23;45.85;;;25.42;;
21999;SDS011;11164;48.818;2.322;2023-06-22T08:54:48;41.55;;;26.17;;
21999;SDS011;11164;48.818;2.322;2023-06-22T08:57:14;39.30;;;23.27;;
21999;SDS011;11164;48.818;2.322;2023-06-22T08:59:40;38.28;;;22.50;;
21999;SDS011;11164;48.818;2.322;2023-06-22T09:02:05;37.50;;;23.20;;
21999;SDS011;11164;48.818;2.322;2023-06-22T09:04:33;38.88;;;24.33;;
21999;SDS011;11164;48.818;2.322;2023-06-22T09:07:01;41.08;;;25.15;;
21999;SDS011;11164;48.818;2.322;2023-06-22T09:09:27;38.85;;;24.33;;
21999;SDS011;11164;48.818;2.322;2023-06-22T09:11:52;33.53;;;22.13;;
21999;SDS011;11164;48.818;2.322;2023-06-22T09:14:18;36.53;;;22.80;;
21999;SDS011;11164;48.818;2.322;2023-06-22T09:16:43;41.65;;;23.95;;
21999;SDS011;11164;48.818;2.322;2023-06-22T09:19:09;42.40;;;24.98;;
21999;SDS011;11164;48.818;2.322;2023-06-22T09:21:34;37.55;;;23.38;;
21999;SDS011;11164;48.818;2.322;2023-06-22T09:24:00;38.33;;;23.67;;
21999;SDS011;11164;48.818;2.322;2023-06-22T09:26:26;38.20;;;24.10;;
21999;SDS011;11164;48.818;2.322;2023-06-22T09:28:52;39.88;;;24.77;;
21999;SDS011;11164;48.818;2.322;2023-06-22T09:31:17;38.42;;;23.90;;
21999;SDS011;11164;48.818;2.322;2023-06-22T09:33:46;39.80;;;23.83;;
21999;SDS011;11164;48.818;2.322;2023-06-22T09:36:12;34.72;;;21.85;;
21999;SDS011;11164;48.818;2.322;2023-06-22T09:38:37;38.38;;;23.48;;
21999;SDS011;11164;48.818;2.322;2023-06-22T09:41:03;30.77;;;20.23;;
21999;SDS011;11164;48.818;2.322;2023-06-22T09:43:29;36.35;;;21.83;;
21999;SDS011;11164;48.818;2.322;2023-06-22T09:45:57;35.70;;;21.13;;
21999;SDS011;11164;48.818;2.322;2023-06-22T09:48:23;32.47;;;18.90;;
21999;SDS011;11164;48.818;2.322;2023-06-22T09:50:49;32.40;;;20.45;;
21999;SDS011;11164;48.818;2.322;2023-06-22T09:53:14;31.52;;;19.35;;
21999;SDS011;11164;48.818;2.322;2023-06-22T09:55:40;27.67;;;18.00;;
21999;SDS011;11164;48.818;2.322;2023-06-22T09:58:05;29.55;;;18.45;;
21999;SDS011;11164;48.818;2.322;2023-06-22T10:00:30;29.33;;;18.23;;
21999;SDS011;11164;48.818;2.322;2023-06-22T10:02:56;27.45;;;17.42;;
21999;SDS011;11164;48.818;2.322;2023-06-22T10:05:22;30.17;;;19.38;;
21999;SDS011;11164;48.818;2.322;2023-06-22T10:07:47;29.77;;;18.58;;
21999;SDS011;11164;48.818;2.322;2023-06-22T10:10:13;28.80;;;17.83;;
21999;SDS011;11164;48.818;2.322;2023-06-22T10:12:42;26.60;;;18.33;;
21999;SDS011;11164;48.818;2.322;2023-06-22T10:15:10;29.23;;;17.55;;
21999;SDS011;11164;48.818;2.322;2023-06-22T10:17:36;27.98;;;17.95;;
21999;SDS011;11164;48.818;2.322;2023-06-22T10:20:01;28.10;;;16.38;;
21999;SDS011;11164;48.818;2.322;2023-06-22T10:22:31;22.88;;;15.90;;
21999;SDS011;11164;48.818;2.322;2023-06-22T10:24:57;22.77;;;14.48;;
21999;SDS011;11164;48.818;2.322;2023-06-22T10:27:22;21.98;;;14.25;;
21999;SDS011;11164;48.818;2.322;2023-06-22T10:29:47;25.13;;;13.82;;
21999;SDS011;11164;48.818;2.322;2023-06-22T10:32:12;19.45;;;13.10;;
21999;SDS011;11164;48.818;2.322;2023-06-22T10:34:38;17.00;;;12.65;;
21999;SDS011;11164;48.818;2.322;2023-06-22T10:37:03;21.05;;;12.00;;
21999;SDS011;11164;48.818;2.322;2023-06-22T10:39:29;15.85;;;11.18;;
21999;SDS011;11164;48.818;2.322;2023-06-22T10:41:54;16.20;;;10.50;;
21999;SDS011;11164;48.818;2.322;2023-06-22T10:44:21;15.57;;;11.32;;
21999;SDS011;11164;48.818;2.322;2023-06-22T10:46:46;18.58;;;11.27;;
21999;SDS011;11164;48.818;2.322;2023-06-22T10:49:12;19.38;;;12.25;;
21999;SDS011;11164;48.818;2.322;2023-06-22T10:51:37;15.32;;;9.90;;
21999;SDS011;11164;48.818;2.322;2023-06-22T10:54:02;16.60;;;10.57;;
21999;SDS011;11164;48.818;2.322;2023-06-22T10:56:29;13.93;;;9.98;;
21999;SDS011;11164;48.818;2.322;2023-06-22T10:58:54;13.77;;;9.25;;
21999;SDS011;11164;48.818;2.322;2023-06-22T11:01:20;12.10;;;8.85;;
21999;SDS011;11164;48.818;2.322;2023-06-22T11:03:45;11.55;;;8.15;;
21999;SDS011;11164;48.818;2.322;2023-06-22T11:06:11;14.20;;;8.52;;
21999;SDS011;11164;48.818;2.322;2023-06-22T11:08:36;12.90;;;7.93;;
21999;SDS011;11164;48.818;2.322;2023-06-22T11:11:01;13.98;;;8.85;;
21999;SDS011;11164;48.818;2.322;2023-06-22T11:13:27;14.18;;;8.38;;
21999;SDS011;11164;48.818;2.322;2023-06-22T11:15:52;13.30;;;8.23;;
21999;SDS011;11164;48.818;2.322;2023-06-22T11:18:17;11.13;;;7.47;;
21999;SDS011;11164;48.818;2.322;2023-06-22T11:20:43;11.27;;;7.93;;
21999;SDS011;11164;48.818;2.322;2023-06-22T11:23:08;11.60;;;6.88;;
21999;SDS011;11164;48.818;2.322;2023-06-22T11:25:34;12.43;;;8.23;;
21999;SDS011;11164;48.818;2.322;2023-06-22T11:28:03;14.02;;;8.57;;
21999;SDS011;11164;48.818;2.322;2023-06-22T11:30:28;11.10;;;7.78;;
21999;SDS011;11164;48.818;2.322;2023-06-22T11:32:54;10.93;;;7.75;;
21999;SDS011;11164;48.818;2.322;2023-06-22T11:35:19;11.60;;;8.77;;
21999;SDS011;11164;48.818;2.322;2023-06-22T11:37:45;12.27;;;8.90;;
21999;SDS011;11164;48.818;2.322;2023-06-22T11:40:10;12.07;;;8.20;;
21999;SDS011;11164;48.818;2.322;2023-06-22T11:42:36;10.60;;;6.72;;
21999;SDS011;11164;48.818;2.322;2023-06-22T11:45:02;10.23;;;6.75;;
21999;SDS011;11164;48.818;2.322;2023-06-22T11:47:29;10.85;;;7.35;;
21999;SDS011;11164;48.818;2.322;2023-06-22T11:49:55;11.30;;;7.43;;
21999;SDS011;11164;48.818;2.322;2023-06-22T11:52:20;9.73;;;7.20;;
21999;SDS011;11164;48.818;2.322;2023-06-22T11:54:46;13.65;;;7.70;;
21999;SDS011;11164;48.818;2.322;2023-06-22T11:57:11;11.43;;;7.40;;
21999;SDS011;11164;48.818;2.322;2023-06-22T11:59:36;11.30;;;7.53;;
21999;SDS011;11164;48.818;2.322;2023-06-22T12:02:02;9.88;;;7.20;;
21999;SDS011;11164;48.818;2.322;2023-06-22T12:04:31;9.65;;;6.57;;
21999;SDS011;11164;48.818;2.322;2023-06-22T12:06:56;9.52;;;6.80;;
21999;SDS011;11164;48.818;2.322;2023-06-22T12:09:23;9.68;;;6.93;;
21999;SDS011;11164;48.818;2.322;2023-06-22T12:11:48;10.15;;;7.63;;
21999;SDS011;11164;48.818;2.322;2023-06-22T12:14:14;13.23;;;7.55;;
21999;SDS011;11164;48.818;2.322;2023-06-22T12:16:39;9.38;;;6.93;;
21999;SDS011;11164;48.818;2.322;2023-06-22T12:19:04;10.90;;;7.60;;
21999;SDS011;11164;48.818;2.322;2023-06-22T12:21:30;10.93;;;7.32;;
21999;SDS011;11164;48.818;2.322;2023-06-22T12:23:55;11.93;;;6.63;;
21999;SDS011;11164;48.818;2.322;2023-06-22T12:26:21;11.25;;;7.28;;
21999;SDS011;11164;48.818;2.322;2023-06-22T12:28:47;11.85;;;6.95;;
21999;SDS011;11164;48.818;2.322;2023-06-22T12:31:12;9.80;;;6.95;;
21999;SDS011;11164;48.818;2.322;2023-06-22T12:33:38;9.20;;;6.68;;
21999;SDS011;11164;48.818;2.322;2023-06-22T12:36:03;11.30;;;6.72;;
21999;SDS011;11164;48.818;2.322;2023-06-22T12:38:30;12.05;;;6.60;;
21999;SDS011;11164;48.818;2.322;2023-06-22T12:40:55;9.13;;;7.10;;
21999;SDS011;11164;48.818;2.322;2023-06-22T12:43:21;12.20;;;6.95;;
21999;SDS011;11164;48.818;2.322;2023-06-22T12:45:47;12.35;;;7.28;;
21999;SDS011;11164;48.818;2.322;2023-06-22T12:48:12;11.18;;;7.20;;
21999;SDS011;11164;48.818;2.322;2023-06-22T12:50:38;10.95;;;6.75;;
21999;SDS011;11164;48.818;2.322;2023-06-22T12:53:03;12.00;;;7.63;;
21999;SDS011;11164;48.818;2.322;2023-06-22T12:55:31;13.32;;;7.82;;
21999;SDS011;11164;48.818;2.322;2023-06-22T12:57:56;11.88;;;8.15;;
21999;SDS011;11164;48.818;2.322;2023-06-22T13:00:22;14.30;;;8.95;;
21999;SDS011;11164;48.818;2.322;2023-06-22T13:02:47;14.20;;;8.52;;
21999;SDS011;11164;48.818;2.322;2023-06-22T13:05:13;11.95;;;8.25;;
21999;SDS011;11164;48.818;2.322;2023-06-22T13:07:38;12.88;;;7.63;;
21999;SDS011;11164;48.818;2.322;2023-06-22T13:10:04;13.00;;;8.18;;
21999;SDS011;11164;48.818;2.322;2023-06-22T13:12:30;13.25;;;8.32;;
21999;SDS011;11164;48.818;2.322;2023-06-22T13:14:55;14.68;;;8.77;;
21999;SDS011;11164;48.818;2.322;2023-06-22T13:17:20;13.27;;;8.05;;
21999;SDS011;11164;48.818;2.322;2023-06-22T13:19:46;12.45;;;9.07;;
21999;SDS011;11164;48.818;2.322;2023-06-22T13:24:59;12.23;;;8.60;;
21999;SDS011;11164;48.818;2.322;2023-06-22T13:27:25;11.45;;;8.40;;
21999;SDS011;11164;48.818;2.322;2023-06-22T13:29:51;12.23;;;8.02;;
21999;SDS011;11164;48.818;2.322;2023-06-22T13:32:16;10.10;;;8.05;;
21999;SDS011;11164;48.818;2.322;2023-06-22T13:34:42;12.73;;;8.75;;
21999;SDS011;11164;48.818;2.322;2023-06-22T13:37:07;11.77;;;8.80;;
21999;SDS011;11164;48.818;2.322;2023-06-22T13:39:33;13.55;;;9.10;;
21999;SDS011;11164;48.818;2.322;2023-06-22T13:41:58;12.10;;;8.75;;
21999;SDS011;11164;48.818;2.322;2023-06-22T13:44:23;13.57;;;8.50;;
21999;SDS011;11164;48.818;2.322;2023-06-22T13:46:52;13.32;;;9.50;;
21999;SDS011;11164;48.818;2.322;2023-06-22T13:49:18;12.50;;;9.68;;
21999;SDS011;11164;48.818;2.322;2023-06-22T13:51:43;12.57;;;9.23;;
21999;SDS011;11164;48.818;2.322;2023-06-22T13:54:08;14.30;;;10.00;;
21999;SDS011;11164;48.818;2.322;2023-06-22T13:56:34;15.73;;;10.27;;
21999;SDS011;11164;48.818;2.322;2023-06-22T13:58:59;13.23;;;9.75;;
21999;SDS011;11164;48.818;2.322;2023-06-22T14:01:24;14.37;;;10.13;;
21999;SDS011;11164;48.818;2.322;2023-06-22T14:03:50;15.45;;;9.85;;
21999;SDS011;11164;48.818;2.322;2023-06-22T14:06:15;13.68;;;9.00;;
21999;SDS011;11164;48.818;2.322;2023-06-22T14:08:40;14.40;;;9.38;;
21999;SDS011;11164;48.818;2.322;2023-06-22T14:11:05;13.20;;;9.52;;
21999;SDS011;11164;48.818;2.322;2023-06-22T14:13:31;14.35;;;8.95;;
21999;SDS011;11164;48.818;2.322;2023-06-22T14:15:56;12.05;;;9.25;;
21999;SDS011;11164;48.818;2.322;2023-06-22T14:18:22;14.73;;;9.07;;
21999;SDS011;11164;48.818;2.322;2023-06-22T14:20:48;12.68;;;8.77;;
21999;SDS011;11164;48.818;2.322;2023-06-22T14:23:13;13.98;;;9.45;;
21999;SDS011;11164;48.818;2.322;2023-06-22T14:25:39;13.50;;;9.25;;
21999;SDS011;11164;48.818;2.322;2023-06-22T14:28:05;14.05;;;8.88;;
21999;SDS011;11164;48.818;2.322;2023-06-22T14:30:31;13.93;;;8.68;;
21999;SDS011;11164;48.818;2.322;2023-06-22T14:32:56;12.60;;;9.00;;
21999;SDS011;11164;48.818;2.322;2023-06-22T14:35:21;12.95;;;9.35;;
21999;SDS011;11164;48.818;2.322;2023-06-22T14:37:47;12.88;;;7.93;;
21999;SDS011;11164;48.818;2.322;2023-06-22T14:40:13;10.50;;;7.70;;
21999;SDS011;11164;48.818;2.322;2023-06-22T14:42:38;14.02;;;8.38;;